createdAt,value
2022-08-12T00:00:45.070Z,100.00
2022-08-12T00:06:04.468Z,100.00
2022-08-12T00:10:53.283Z,100.00
2022-08-12T00:15:57.451Z,100.00
2022-08-12T00:21:01.622Z,100.00
2022-08-12T00:26:22.395Z,100.00
2022-08-12T00:31:09.916Z,100.00
2022-08-12T00:36:30.650Z,100.00
2022-08-12T00:41:18.264Z,100.00
2022-08-12T00:46:20.502Z,100.00
2022-08-12T00:51:24.661Z,100.00
2022-08-12T00:56:26.940Z,100.00
2022-08-12T01:01:31.175Z,100.00
2022-08-12T01:06:35.238Z,100.00
2022-08-12T01:11:39.404Z,100.00
2022-08-12T01:16:43.584Z,100.00
2022-08-12T01:21:47.760Z,100.00
2022-08-12T01:26:51.861Z,100.00
2022-08-12T01:31:56.042Z,100.00
2022-08-12T01:37:00.199Z,100.00
2022-08-12T01:42:04.375Z,100.00
2022-08-12T01:47:08.541Z,100.00
2022-08-12T01:52:12.711Z,100.00
2022-08-12T01:57:16.834Z,100.00
2022-08-12T02:02:21.044Z,100.00
2022-08-12T02:07:25.153Z,100.00
2022-08-12T02:12:31.285Z,100.00
2022-08-12T02:17:56.009Z,100.00
2022-08-12T02:22:37.671Z,100.00
2022-08-12T02:27:41.793Z,100.00
2022-08-12T02:32:45.955Z,100.00
2022-08-12T02:37:50.146Z,100.00
2022-08-12T02:42:52.408Z,100.00
2022-08-12T02:48:00.832Z,100.00
2022-08-12T02:52:58.816Z,100.00
2022-08-12T02:58:04.296Z,100.00
2022-08-12T03:03:07.159Z,100.00
2022-08-12T03:08:11.297Z,100.00
2022-08-12T03:13:15.444Z,100.00
2022-08-12T03:18:27.029Z,100.00
2022-08-12T03:23:29.984Z,100.00
2022-08-12T03:28:27.946Z,100.00
2022-08-12T03:33:32.122Z,100.00
2022-08-12T03:38:36.253Z,100.00
2022-08-12T03:43:40.445Z,100.00
2022-08-12T03:48:44.575Z,100.00
2022-08-12T03:53:48.740Z,100.00
2022-08-12T03:58:53.273Z,100.00
2022-08-12T04:03:57.081Z,100.00
2022-08-12T04:09:01.236Z,100.00
2022-08-12T04:14:05.354Z,100.00
2022-08-12T04:19:09.510Z,100.00
2022-08-12T04:24:13.696Z,100.00
2022-08-12T04:29:17.844Z,100.00
2022-08-12T04:34:21.987Z,100.00
2022-08-12T04:39:24.352Z,100.00
2022-08-12T04:44:28.463Z,100.00
2022-08-12T04:49:30.709Z,100.00
2022-08-12T04:54:34.876Z,100.00
2022-08-12T04:59:46.527Z,100.00
2022-08-12T05:04:43.203Z,100.00
2022-08-12T05:10:00.160Z,100.00
2022-08-12T05:14:51.508Z,100.00
2022-08-12T05:19:57.347Z,100.00
2022-08-12T05:24:59.836Z,100.00
2022-08-12T05:30:07.324Z,100.00
2022-08-12T05:35:08.227Z,100.00
2022-08-12T05:40:12.345Z,100.00
2022-08-12T05:45:16.485Z,100.00
2022-08-12T05:50:20.639Z,100.00
2022-08-12T05:55:29.382Z,100.00
2022-08-12T06:00:29.029Z,100.00
2022-08-12T06:05:33.150Z,100.00
2022-08-12T06:10:37.248Z,100.00
2022-08-12T06:15:41.472Z,100.00
2022-08-12T06:20:45.804Z,100.00
2022-08-12T06:25:49.758Z,100.00
2022-08-12T06:31:14.965Z,100.00
2022-08-12T06:35:58.970Z,100.00
2022-08-12T06:41:00.398Z,100.00
2022-08-12T06:46:02.640Z,100.00
2022-08-12T06:51:06.769Z,100.00
2022-08-12T06:56:12.632Z,100.00
2022-08-12T07:01:15.173Z,100.00
2022-08-12T07:06:19.291Z,100.00
2022-08-12T07:11:23.416Z,100.00
2022-08-12T07:16:27.566Z,100.00
2022-08-12T07:22:00.537Z,100.00
2022-08-12T07:26:36.000Z,100.00
2022-08-12T07:31:40.097Z,100.00
2022-08-12T07:36:44.228Z,100.00
2022-08-12T07:41:48.358Z,100.00
2022-08-12T07:46:52.522Z,100.00
2022-08-12T07:51:56.696Z,100.00
2022-08-12T07:57:00.850Z,100.00
2022-08-12T08:02:05.046Z,100.00
2022-08-12T08:07:09.204Z,100.00
2022-08-12T08:12:19.709Z,100.00
2022-08-12T08:17:17.493Z,100.00
2022-08-12T08:22:33.520Z,100.00
2022-08-12T08:27:25.830Z,100.00
2022-08-12T08:32:28.070Z,100.00
2022-08-12T08:37:33.412Z,100.00
2022-08-12T08:42:36.383Z,100.00
2022-08-12T08:47:40.552Z,99.30
2022-08-12T08:52:44.719Z,96.01
2022-08-12T08:57:48.865Z,97.04
2022-08-12T09:02:59.083Z,84.90
2022-08-12T09:08:08.813Z,78.28
2022-08-12T09:13:01.959Z,90.28
2022-08-12T09:18:08.361Z,76.93
2022-08-12T09:23:59.195Z,72.65
2022-08-12T09:28:13.839Z,62.24
2022-08-12T09:34:25.499Z,70.60
2022-08-12T09:38:28.230Z,58.05
2022-08-12T09:43:26.850Z,63.10
2022-08-12T09:48:35.282Z,65.56
2022-08-12T09:53:38.832Z,60.19
2022-08-12T09:58:57.990Z,57.38
2022-08-12T10:03:55.468Z,58.13
2022-08-12T10:08:52.517Z,55.56
2022-08-12T10:13:51.335Z,58.70
2022-08-12T10:18:53.832Z,61.65
2022-08-12T10:23:57.691Z,60.92
2022-08-12T10:29:03.323Z,55.78
2022-08-12T10:34:23.840Z,51.43
2022-08-12T10:40:00.095Z,53.63
2022-08-12T10:44:17.549Z,53.23
2022-08-12T10:50:07.063Z,50.88
2022-08-12T10:54:26.121Z,47.58
2022-08-12T11:00:31.497Z,51.41
2022-08-12T11:04:39.402Z,44.28
2022-08-12T11:09:56.185Z,52.09
2022-08-12T11:14:49.952Z,44.69
2022-08-12T11:19:43.445Z,40.32
2022-08-12T11:24:51.121Z,42.90
2022-08-12T11:30:05.270Z,45.78
2022-08-12T11:34:59.186Z,42.36
2022-08-12T11:40:00.101Z,39.59
2022-08-12T11:45:05.102Z,38.30
2022-08-12T11:50:08.345Z,38.02
2022-08-12T11:55:14.880Z,41.72
2022-08-12T12:05:18.941Z,38.96
2022-08-12T12:10:23.156Z,38.35
2022-08-12T12:15:40.623Z,40.79
2022-08-12T12:20:30.608Z,40.11
2022-08-12T12:25:59.719Z,41.80
2022-08-12T12:30:35.998Z,37.37
2022-08-12T12:36:06.575Z,36.68
2022-08-12T12:40:43.814Z,39.92
2022-08-12T12:45:46.682Z,35.83
2022-08-12T12:50:51.437Z,34.90
2022-08-12T12:55:54.848Z,35.88
2022-08-12T13:01:04.842Z,34.70
2022-08-12T13:06:03.199Z,35.01
2022-08-12T13:11:07.565Z,34.54
2022-08-12T13:16:14.487Z,34.36
2022-08-12T13:21:32.828Z,33.76
2022-08-12T13:26:19.811Z,35.67
2022-08-12T13:31:24.916Z,32.83
2022-08-12T13:36:28.167Z,32.39
2022-08-12T13:41:32.328Z,35.36
2022-08-12T13:46:36.480Z,33.66
2022-08-12T13:51:41.443Z,34.05
2022-08-12T13:56:49.947Z,35.04
2022-08-12T14:01:48.978Z,34.88
2022-08-12T14:06:59.317Z,36.62
2022-08-12T14:11:59.585Z,35.13
2022-08-12T14:17:01.413Z,35.09
2022-08-12T14:22:04.652Z,34.35
2022-08-12T14:27:08.718Z,32.92
2022-08-12T14:32:16.650Z,34.69
2022-08-12T14:37:55.483Z,34.99
2022-08-12T14:42:16.561Z,35.43
2022-08-12T14:47:20.734Z,32.84
2022-08-12T14:52:55.484Z,32.90
2022-08-12T14:57:35.510Z,32.31
2022-08-12T15:02:33.191Z,32.10
2022-08-12T15:07:48.846Z,30.04
2022-08-12T15:12:41.582Z,31.94
2022-08-12T15:17:45.664Z,33.06
2022-08-12T15:22:53.652Z,31.35
2022-08-12T15:28:05.201Z,32.11
2022-08-12T15:32:58.197Z,30.32
2022-08-12T15:38:10.074Z,30.51
2022-08-12T15:43:08.188Z,32.66
2022-08-12T15:48:16.866Z,30.74
2022-08-12T15:53:15.520Z,29.34
2022-08-12T15:58:17.078Z,27.53
2022-08-12T16:03:25.761Z,26.57
2022-08-12T16:08:27.169Z,26.99
2022-08-12T16:13:34.342Z,25.57
2022-08-12T16:18:31.797Z,25.85
2022-08-12T16:23:52.266Z,25.89
2022-08-12T16:28:40.154Z,25.14
2022-08-12T16:33:59.186Z,24.14
2022-08-12T16:38:48.455Z,23.71
2022-08-12T16:43:52.602Z,24.70
2022-08-12T16:48:56.789Z,25.21
2022-08-12T16:54:00.934Z,25.57
2022-08-12T16:59:16.165Z,25.88
2022-08-12T17:04:09.488Z,28.15
2022-08-12T17:09:17.844Z,29.88
2022-08-12T17:14:17.607Z,30.04
2022-08-12T17:20:12.187Z,31.76
2022-08-12T17:24:30.530Z,33.35
2022-08-12T17:30:00.215Z,33.84
2022-08-12T17:34:34.249Z,36.17
2022-08-12T17:40:12.631Z,35.16
2022-08-12T17:44:40.635Z,35.42
2022-08-12T17:50:03.353Z,38.16
2022-08-12T17:54:47.088Z,37.24
2022-08-12T17:59:51.486Z,36.51
2022-08-12T18:05:09.777Z,38.39
2022-08-12T18:09:59.538Z,39.79
2022-08-12T18:15:08.734Z,40.66
2022-08-12T18:20:12.563Z,40.61
2022-08-12T18:26:12.212Z,42.06
2022-08-12T18:30:21.016Z,40.91
2022-08-12T18:35:20.355Z,42.66
2022-08-12T18:40:24.497Z,45.83
2022-08-12T18:45:31.603Z,44.60
2022-08-12T18:50:49.466Z,47.38
2022-08-12T18:55:37.153Z,46.60
2022-08-12T19:00:41.204Z,49.07
2022-08-12T19:05:53.521Z,51.43
2022-08-12T19:10:50.221Z,56.27
2022-08-12T19:15:54.011Z,55.78
2022-08-12T19:20:58.255Z,59.31
2022-08-12T19:26:02.938Z,67.36
2022-08-12T19:31:06.092Z,65.34
2022-08-12T19:36:25.358Z,68.72
2022-08-12T19:41:12.775Z,67.10
2022-08-12T19:46:16.695Z,72.96
2022-08-12T19:51:24.331Z,76.15
2022-08-12T19:56:25.203Z,80.32
2022-08-12T20:01:27.246Z,87.93
2022-08-12T20:06:34.364Z,92.84
2022-08-12T20:12:13.518Z,95.46
2022-08-12T20:16:52.133Z,100.00
2022-08-12T20:26:48.250Z,100.00
2022-08-12T20:31:52.192Z,100.00
2022-08-12T20:36:57.374Z,100.00
2022-08-12T20:42:00.544Z,100.00
2022-08-12T20:47:04.704Z,100.00
2022-08-12T20:52:08.815Z,100.00
2022-08-12T20:57:13.000Z,100.00
2022-08-12T21:02:17.339Z,100.00
2022-08-12T21:07:23.521Z,100.00
2022-08-12T21:12:30.943Z,100.00
2022-08-12T21:18:01.004Z,100.00
2022-08-12T21:22:33.845Z,100.00
2022-08-12T21:27:59.299Z,100.00
2022-08-12T21:32:42.096Z,100.00
2022-08-12T21:37:53.037Z,100.00
2022-08-12T21:42:48.543Z,100.00
2022-08-12T21:47:53.299Z,100.00
2022-08-12T21:52:56.860Z,100.00
2022-08-12T21:58:03.444Z,100.00
2022-08-12T22:03:03.336Z,100.00
2022-08-12T22:08:07.457Z,100.00
2022-08-12T22:14:07.746Z,100.00
2022-08-12T22:18:17.342Z,100.00
2022-08-12T22:23:28.537Z,100.00
2022-08-12T22:28:24.648Z,100.00
2022-08-12T22:38:32.564Z,100.00
2022-08-12T22:43:36.589Z,100.00
2022-08-12T22:48:50.364Z,100.00
2022-08-12T22:53:44.872Z,100.00
2022-08-12T22:58:49.046Z,100.00
2022-08-12T23:03:53.876Z,100.00
2022-08-12T23:08:57.354Z,100.00
2022-08-12T23:14:01.586Z,100.00
2022-08-12T23:19:10.919Z,100.00
2022-08-12T23:24:10.934Z,100.00
2022-08-12T23:29:29.811Z,100.00
2022-08-12T23:34:18.333Z,100.00
2022-08-12T23:40:14.085Z,100.00
2022-08-12T23:44:31.586Z,100.00
2022-08-12T23:49:56.345Z,100.00
2022-08-12T23:54:43.970Z,100.00
2022-08-12T23:59:43.563Z,100.00
